createdAt,value
2018-12-18T00:01:48.921Z,10.73
2018-12-18T00:04:20.651Z,10.43
2018-12-18T00:06:52.883Z,10.83
2018-12-18T00:09:25.179Z,11.07
2018-12-18T00:11:59.394Z,10.07
2018-12-18T00:14:31.740Z,11.00
2018-12-18T00:17:04.055Z,10.77
2018-12-18T00:19:35.999Z,10.43
2018-12-18T00:22:10.827Z,10.60
2018-12-18T00:24:42.599Z,10.33
2018-12-18T00:27:14.870Z,10.77
2018-12-18T00:29:47.092Z,10.80
2018-12-18T00:32:19.376Z,8.53
2018-12-18T00:34:51.474Z,11.03
2018-12-18T00:37:23.855Z,9.77
2018-12-18T00:39:56.148Z,10.83
2018-12-18T00:42:28.469Z,9.97
2018-12-18T00:45:00.925Z,11.50
2018-12-18T00:47:32.859Z,11.20
2018-12-18T00:50:05.294Z,10.67
2018-12-18T00:52:37.529Z,12.57
2018-12-18T00:55:09.798Z,11.30
2018-12-18T00:57:43.887Z,11.67
2018-12-18T01:00:16.112Z,11.50
2018-12-18T01:02:47.868Z,10.93
2018-12-18T01:05:20.313Z,11.00
2018-12-18T01:07:53.507Z,10.77
2018-12-18T01:13:17.275Z,12.50
2018-12-18T01:15:48.885Z,11.40
2018-12-18T01:18:21.806Z,10.60
2018-12-18T01:20:53.783Z,11.70
2018-12-18T01:23:25.815Z,12.33
2018-12-18T01:26:00.243Z,11.97
2018-12-18T01:28:34.123Z,10.50
2018-12-18T01:31:05.922Z,12.33
2018-12-18T01:33:38.426Z,12.77
2018-12-18T01:38:42.095Z,13.07
2018-12-18T01:41:14.611Z,12.60
2018-12-18T01:43:46.597Z,12.00
2018-12-18T01:46:18.605Z,13.30
2018-12-18T01:48:50.704Z,13.43
2018-12-18T01:51:22.823Z,13.47
2018-12-18T01:53:55.008Z,13.93
2018-12-18T01:56:27.512Z,13.40
2018-12-18T01:58:59.860Z,14.63
2018-12-18T02:01:29.932Z,14.63
2018-12-18T02:04:05.926Z,14.97
2018-12-18T02:06:35.918Z,14.57
2018-12-18T02:09:08.731Z,15.27
2018-12-18T02:11:40.591Z,15.23
2018-12-18T02:14:12.659Z,16.20
2018-12-18T02:16:44.781Z,15.90
2018-12-18T02:19:17.292Z,16.30
2018-12-18T02:21:49.528Z,16.43
2018-12-18T02:24:21.937Z,16.70
2018-12-18T02:26:53.954Z,17.57
2018-12-18T02:29:26.224Z,17.77
2018-12-18T02:31:56.494Z,17.70
2018-12-18T02:34:28.971Z,16.80
2018-12-18T02:37:00.896Z,16.57
2018-12-18T02:39:35.536Z,18.40
2018-12-18T02:42:07.965Z,16.53
2018-12-18T02:44:40.385Z,16.80
2018-12-18T02:47:12.764Z,17.23
2018-12-18T02:49:45.201Z,15.67
2018-12-18T02:52:15.288Z,16.70
2018-12-18T02:54:47.278Z,15.30
2018-12-18T02:57:17.776Z,14.30
2018-12-18T02:59:49.649Z,14.93
2018-12-18T03:02:20.163Z,9.80
2018-12-18T03:04:52.535Z,15.33
2018-12-18T03:07:24.568Z,14.87
2018-12-18T03:09:56.716Z,15.20
2018-12-18T03:12:26.944Z,15.33
2018-12-18T03:14:59.003Z,15.50
2018-12-18T03:17:31.071Z,14.73
2018-12-18T03:20:03.198Z,15.27
2018-12-18T03:22:35.578Z,15.33
2018-12-18T03:25:08.007Z,15.03
2018-12-18T03:27:38.129Z,14.90
2018-12-18T03:30:10.467Z,15.63
2018-12-18T03:32:48.666Z,14.53
2018-12-18T03:35:21.073Z,16.70
2018-12-18T03:37:53.340Z,15.40
2018-12-18T03:40:25.691Z,15.60
2018-12-18T03:42:58.127Z,15.97
2018-12-18T03:45:30.599Z,15.73
2018-12-18T03:48:02.499Z,15.63
2018-12-18T03:50:34.647Z,15.70
2018-12-18T03:53:06.821Z,16.13
2018-12-18T03:55:39.010Z,15.83
2018-12-18T03:58:11.317Z,16.07
2018-12-18T04:00:41.651Z,15.80
2018-12-18T04:03:13.830Z,15.73
2018-12-18T04:05:45.868Z,14.93
2018-12-18T04:08:18.171Z,15.37
2018-12-18T04:10:50.245Z,14.50
2018-12-18T04:13:22.094Z,14.93
2018-12-18T04:15:54.025Z,15.07
2018-12-18T04:18:26.035Z,14.30
2018-12-18T04:20:58.276Z,13.00
2018-12-18T04:23:30.707Z,13.90
2018-12-18T04:26:02.727Z,14.00
2018-12-18T04:28:35.024Z,15.63
2018-12-18T04:31:09.483Z,14.07
2018-12-18T04:33:41.376Z,14.37
2018-12-18T04:36:11.439Z,15.03
2018-12-18T04:38:43.605Z,15.63
2018-12-18T04:41:14.133Z,14.83
2018-12-18T04:43:44.420Z,15.30
2018-12-18T04:46:16.725Z,15.53
2018-12-18T04:48:48.549Z,15.37
2018-12-18T04:51:20.743Z,14.77
2018-12-18T04:53:53.089Z,16.10
2018-12-18T04:56:24.816Z,15.43
2018-12-18T04:58:55.111Z,16.53
2018-12-18T05:01:32.475Z,15.87
2018-12-18T05:04:04.489Z,15.67
2018-12-18T05:06:36.637Z,15.93
2018-12-18T05:09:09.153Z,16.93
2018-12-18T05:11:41.910Z,15.40
2018-12-18T05:14:13.639Z,16.47
2018-12-18T05:16:46.137Z,15.93
2018-12-18T05:19:18.431Z,16.03
2018-12-18T05:21:50.793Z,17.60
2018-12-18T05:24:22.942Z,17.77
2018-12-18T05:26:55.056Z,16.80
2018-12-18T05:29:27.194Z,15.27
2018-12-18T05:31:59.332Z,16.27
2018-12-18T05:34:31.655Z,18.47
2018-12-18T05:37:04.010Z,16.20
2018-12-18T05:39:36.055Z,15.20
2018-12-18T05:42:06.286Z,17.13
2018-12-18T05:44:38.631Z,15.43
2018-12-18T05:47:11.531Z,15.30
2018-12-18T05:49:44.303Z,15.27
2018-12-18T05:52:20.219Z,15.00
2018-12-18T05:54:50.415Z,15.70
2018-12-18T05:57:22.785Z,15.53
2018-12-18T05:59:55.516Z,14.53
2018-12-18T06:02:28.917Z,17.80
2018-12-18T06:05:03.273Z,16.20
2018-12-18T06:07:35.153Z,16.53
2018-12-18T06:10:07.076Z,16.33
2018-12-18T06:12:39.619Z,15.73
2018-12-18T06:15:12.007Z,15.53
2018-12-18T06:20:38.121Z,16.50
2018-12-18T06:23:10.290Z,16.60
2018-12-18T06:25:42.599Z,16.33
2018-12-18T06:28:15.041Z,15.70
2018-12-18T06:30:47.416Z,15.13
2018-12-18T06:33:20.934Z,15.70
2018-12-18T06:35:52.823Z,16.13
2018-12-18T06:38:25.861Z,17.20
2018-12-18T06:40:58.382Z,15.57
2018-12-18T06:43:30.904Z,16.03
2018-12-18T06:46:01.132Z,14.33
2018-12-18T06:48:35.779Z,15.20
2018-12-18T06:51:07.681Z,15.00
2018-12-18T06:53:38.110Z,14.77
2018-12-18T06:56:10.459Z,14.60
2018-12-18T06:58:42.819Z,15.97
2018-12-18T07:01:14.771Z,15.87
2018-12-18T07:03:47.139Z,19.47
2018-12-18T07:06:19.279Z,18.13
2018-12-18T07:08:51.284Z,17.43
2018-12-18T07:11:23.310Z,18.10
2018-12-18T07:13:55.872Z,17.17
2018-12-18T07:16:27.925Z,16.60
2018-12-18T07:19:00.555Z,15.87
2018-12-18T07:21:33.045Z,15.87
2018-12-18T07:24:04.654Z,15.87
2018-12-18T07:26:36.697Z,16.67
2018-12-18T07:29:09.244Z,16.10
2018-12-18T07:31:41.414Z,20.10
2018-12-18T07:34:13.619Z,20.60
2018-12-18T07:36:45.899Z,17.27
2018-12-18T07:39:16.062Z,15.67
2018-12-18T07:41:48.282Z,16.40
2018-12-18T07:44:21.029Z,16.73
2018-12-18T07:46:53.468Z,16.83
2018-12-18T07:49:25.972Z,17.30
2018-12-18T07:51:59.719Z,17.07
2018-12-18T07:54:39.458Z,17.03
2018-12-18T07:57:12.163Z,16.37
2018-12-18T07:59:44.318Z,15.90
2018-12-18T08:02:15.424Z,17.07
2018-12-18T08:04:47.812Z,16.40
2018-12-18T08:07:20.495Z,16.70
2018-12-18T08:09:52.741Z,16.97
2018-12-18T08:12:26.719Z,16.20
2018-12-18T08:15:00.474Z,14.60
2018-12-18T08:17:34.719Z,15.27
2018-12-18T08:20:07.472Z,15.30
2018-12-18T08:22:39.365Z,15.10
2018-12-18T08:25:11.529Z,14.43
2018-12-18T08:27:44.275Z,15.73
2018-12-18T08:30:16.225Z,15.87
2018-12-18T08:32:48.519Z,16.17
2018-12-18T08:35:20.593Z,15.60
2018-12-18T08:37:53.128Z,15.20
2018-12-18T08:40:25.484Z,15.13
2018-12-18T08:42:57.900Z,16.33
2018-12-18T08:45:29.867Z,16.07
2018-12-18T08:48:06.159Z,16.40
2018-12-18T08:50:40.757Z,15.53
2018-12-18T08:53:12.589Z,15.77
2018-12-18T08:55:45.134Z,15.30
2018-12-18T08:58:18.190Z,14.83
2018-12-18T09:00:50.116Z,15.30
2018-12-18T09:03:21.924Z,15.63
2018-12-18T09:05:54.265Z,15.40
2018-12-18T09:08:26.559Z,16.20
2018-12-18T09:10:58.420Z,14.47
2018-12-18T09:13:31.719Z,15.00
2018-12-18T09:16:10.559Z,13.83
2018-12-18T09:18:42.878Z,13.73
2018-12-18T09:21:17.558Z,14.10
2018-12-18T09:23:53.173Z,13.17
2018-12-18T09:26:27.147Z,13.77
2018-12-18T09:29:00.149Z,13.17
2018-12-18T09:31:32.579Z,12.33
2018-12-18T09:34:03.762Z,13.40
2018-12-18T09:36:38.828Z,12.83
2018-12-18T09:39:16.633Z,12.23
2018-12-18T09:41:53.411Z,12.37
2018-12-18T09:44:25.253Z,13.10
2018-12-18T09:46:55.447Z,12.90
2018-12-18T09:49:30.087Z,12.10
2018-12-18T09:52:02.051Z,12.43
2018-12-18T09:54:34.427Z,12.13
2018-12-18T09:57:10.713Z,12.17
2018-12-18T09:59:47.207Z,11.50
2018-12-18T10:02:25.919Z,12.90
2018-12-18T10:04:58.326Z,11.30
2018-12-18T10:07:30.643Z,11.50
2018-12-18T10:10:03.203Z,11.70
2018-12-18T10:12:40.113Z,11.67
2018-12-18T10:15:11.927Z,11.13
2018-12-18T10:17:43.941Z,11.03
2018-12-18T10:20:16.595Z,10.50
2018-12-18T10:22:48.923Z,10.50
2018-12-18T10:25:19.200Z,10.50
2018-12-18T10:27:53.256Z,10.83
2018-12-18T10:30:26.024Z,11.03
2018-12-18T10:32:58.622Z,10.43
2018-12-18T10:35:36.520Z,10.67
2018-12-18T10:38:05.776Z,10.90
2018-12-18T10:40:38.994Z,11.03
2018-12-18T10:43:11.408Z,11.17
2018-12-18T10:45:41.570Z,8.40
2018-12-18T10:48:13.908Z,8.30
2018-12-18T10:50:45.978Z,7.20
2018-12-18T10:53:18.511Z,7.77
2018-12-18T10:55:50.662Z,10.17
2018-12-18T10:58:24.262Z,9.60
2018-12-18T11:01:02.075Z,8.43
2018-12-18T11:03:34.186Z,8.73
2018-12-18T11:06:09.933Z,8.87
2018-12-18T11:08:40.687Z,8.10
2018-12-18T11:11:13.400Z,8.37
2018-12-18T11:13:45.672Z,8.00
2018-12-18T11:16:17.743Z,7.87
2018-12-18T11:18:51.790Z,8.10
2018-12-18T11:21:24.183Z,8.10
2018-12-18T11:23:56.615Z,8.10
2018-12-18T11:26:30.809Z,8.73
2018-12-18T11:29:02.866Z,7.40
2018-12-18T11:31:35.220Z,8.00
2018-12-18T11:34:07.750Z,8.93
2018-12-18T11:36:42.350Z,6.87
2018-12-18T11:39:14.118Z,7.53
2018-12-18T11:41:51.031Z,7.57
2018-12-18T11:44:23.452Z,8.10
2018-12-18T11:46:55.435Z,7.83
2018-12-18T11:49:27.254Z,7.43
2018-12-18T11:51:59.516Z,6.43
2018-12-18T11:54:31.385Z,5.40
2018-12-18T11:57:03.778Z,5.23
2018-12-18T11:59:36.328Z,5.30
2018-12-18T12:02:11.052Z,5.00
2018-12-18T12:04:43.247Z,4.57
2018-12-18T12:07:31.059Z,6.13
2018-12-18T12:10:14.281Z,6.30
2018-12-18T12:12:46.947Z,5.83
2018-12-18T12:15:19.112Z,6.20
2018-12-18T12:17:52.412Z,6.23
2018-12-18T12:20:24.656Z,6.07
2018-12-18T12:22:55.084Z,6.07
2018-12-18T12:25:29.640Z,5.10
2018-12-18T12:28:06.499Z,5.30
2018-12-18T12:30:39.275Z,4.40
2018-12-18T12:33:13.655Z,4.07
2018-12-18T12:35:45.333Z,4.20
2018-12-18T12:38:17.640Z,5.70
2018-12-18T12:40:48.034Z,6.07
2018-12-18T12:43:24.170Z,5.03
2018-12-18T12:45:56.825Z,4.70
2018-12-18T12:48:33.815Z,4.20
2018-12-18T12:51:06.289Z,4.00
2018-12-18T12:53:38.280Z,3.60
2018-12-18T12:56:10.458Z,3.67
2018-12-18T12:58:42.902Z,3.70
2018-12-18T13:01:15.152Z,3.60
2018-12-18T13:03:47.428Z,3.70
2018-12-18T13:06:20.027Z,3.70
2018-12-18T13:08:52.258Z,3.83
2018-12-18T13:11:25.272Z,3.73
2018-12-18T13:13:57.796Z,3.73
2018-12-18T13:16:31.055Z,4.10
2018-12-18T13:19:03.821Z,3.93
2018-12-18T13:21:35.981Z,4.40
2018-12-18T13:24:09.212Z,4.00
2018-12-18T13:26:41.827Z,3.77
2018-12-18T13:29:13.332Z,3.70
2018-12-18T13:31:44.358Z,4.03
2018-12-18T13:34:17.439Z,4.30
2018-12-18T13:36:48.133Z,3.83
2018-12-18T13:39:20.076Z,4.60
2018-12-18T13:41:52.721Z,3.90
2018-12-18T13:44:28.035Z,3.90
2018-12-18T13:47:01.964Z,3.80
2018-12-18T13:49:35.868Z,3.50
2018-12-18T13:52:08.010Z,4.27
2018-12-18T13:54:42.697Z,4.10
2018-12-18T13:57:15.850Z,4.30
2018-12-18T14:00:14.160Z,4.30
2018-12-18T14:02:46.436Z,3.80
2018-12-18T14:05:18.618Z,4.13
2018-12-18T14:07:51.184Z,5.70
2018-12-18T14:10:23.277Z,5.00
2018-12-18T14:12:57.181Z,4.87
2018-12-18T14:15:31.503Z,4.27
2018-12-18T14:18:03.701Z,4.30
2018-12-18T14:20:38.256Z,4.40
2018-12-18T14:23:09.824Z,3.83
2018-12-18T14:25:42.292Z,3.97
2018-12-18T14:28:14.354Z,4.00
2018-12-18T14:30:46.480Z,3.87
2018-12-18T14:33:18.056Z,4.00
2018-12-18T14:35:50.418Z,4.43
2018-12-18T14:38:20.568Z,4.87
2018-12-18T14:40:52.813Z,5.00
2018-12-18T14:43:25.549Z,4.90
2018-12-18T14:45:57.308Z,5.10
2018-12-18T14:48:30.348Z,5.87
2018-12-18T14:51:02.862Z,5.77
2018-12-18T14:53:32.967Z,6.33
2018-12-18T14:56:05.081Z,6.00
2018-12-18T14:58:37.571Z,6.13
2018-12-18T15:01:09.415Z,6.50
2018-12-18T15:03:41.204Z,5.93
2018-12-18T15:06:13.075Z,6.63
2018-12-18T15:08:45.430Z,6.50
2018-12-18T15:11:19.967Z,7.07
2018-12-18T15:13:51.743Z,6.00
2018-12-18T15:16:23.911Z,6.67
2018-12-18T15:18:56.463Z,6.97
2018-12-18T15:21:28.536Z,7.63
2018-12-18T15:24:00.755Z,7.77
2018-12-18T15:26:33.001Z,8.83
2018-12-18T15:29:05.494Z,9.23
2018-12-18T15:31:37.325Z,9.10
2018-12-18T15:34:09.382Z,8.70
2018-12-18T15:36:42.003Z,9.67
2018-12-18T15:39:13.868Z,9.03
2018-12-18T15:41:45.840Z,8.40
2018-12-18T15:44:18.224Z,8.60
2018-12-18T15:46:52.588Z,9.00
2018-12-18T15:49:24.603Z,40.03
2018-12-18T15:51:56.704Z,12.20
2018-12-18T15:54:29.024Z,11.77
2018-12-18T15:57:01.131Z,10.33
2018-12-18T15:59:33.528Z,9.73
2018-12-18T16:07:15.975Z,10.07
2018-12-18T16:09:44.184Z,11.30
2018-12-18T16:12:16.482Z,12.93
2018-12-18T16:14:48.611Z,16.27
2018-12-18T16:17:21.704Z,17.33
2018-12-18T16:19:54.529Z,15.23
2018-12-18T16:22:26.594Z,13.50
2018-12-18T16:24:58.668Z,11.67
2018-12-18T16:27:30.815Z,10.60
2018-12-18T16:30:02.913Z,10.30
2018-12-18T16:35:25.788Z,9.53
2018-12-18T16:37:58.164Z,9.60
2018-12-18T16:40:29.923Z,9.20
2018-12-18T16:43:02.084Z,9.20
2018-12-18T16:45:34.130Z,9.37
2018-12-18T16:48:06.482Z,9.53
2018-12-18T16:50:38.383Z,9.60
2018-12-18T16:53:10.475Z,12.07
2018-12-18T16:55:45.027Z,11.20
2018-12-18T16:58:16.987Z,11.23
2018-12-18T17:00:49.132Z,10.40
2018-12-18T17:03:23.702Z,10.50
2018-12-18T17:05:55.426Z,11.27
2018-12-18T17:08:27.883Z,11.07
2018-12-18T17:11:00.088Z,10.63
2018-12-18T17:13:32.472Z,12.27
2018-12-18T17:16:06.111Z,12.57
2018-12-18T17:18:37.784Z,12.37
2018-12-18T17:21:09.881Z,11.57
2018-12-18T17:23:42.283Z,10.00
2018-12-18T17:26:15.722Z,12.10
2018-12-18T17:28:47.669Z,12.10
2018-12-18T17:31:17.745Z,11.40
2018-12-18T17:33:49.936Z,12.07
2018-12-18T17:36:22.129Z,13.90
2018-12-18T17:38:54.292Z,13.80
2018-12-18T17:41:26.827Z,13.90
2018-12-18T17:43:56.984Z,13.00
2018-12-18T17:46:29.052Z,16.30
2018-12-18T17:48:59.186Z,14.40
2018-12-18T17:51:33.623Z,18.60
2018-12-18T17:54:05.568Z,18.30
2018-12-18T17:56:35.831Z,19.43
2018-12-18T17:59:06.067Z,15.97
2018-12-18T18:01:38.340Z,21.13
2018-12-18T18:04:10.448Z,16.43
2018-12-18T18:06:40.900Z,15.00
2018-12-18T18:09:11.369Z,15.03
2018-12-18T18:11:43.364Z,16.17
2018-12-18T18:14:15.511Z,13.97
2018-12-18T18:16:49.926Z,16.60
2018-12-18T18:19:21.533Z,16.30
2018-12-18T18:21:53.600Z,17.93
2018-12-18T18:24:23.903Z,16.23
2018-12-18T18:26:55.411Z,16.43
2018-12-18T18:29:27.816Z,15.80
2018-12-18T18:31:59.884Z,16.57
2018-12-18T18:34:34.561Z,15.47
2018-12-18T18:37:06.967Z,17.43
2018-12-18T18:39:39.073Z,17.30
2018-12-18T18:42:11.522Z,18.17
2018-12-18T18:44:44.176Z,21.17
2018-12-18T18:47:15.927Z,19.77
2018-12-18T18:49:48.140Z,18.97
2018-12-18T18:52:18.532Z,19.20
2018-12-18T18:54:50.584Z,20.00
2018-12-18T18:57:22.764Z,19.20
2018-12-18T18:59:56.166Z,17.93
2018-12-18T19:02:28.228Z,19.23
2018-12-18T19:05:00.726Z,18.40
2018-12-18T19:07:35.229Z,18.93
2018-12-18T19:10:08.504Z,17.57
2018-12-18T19:12:40.539Z,18.53
2018-12-18T19:15:12.818Z,23.30
2018-12-18T19:17:45.221Z,19.73
2018-12-18T19:20:17.607Z,16.17
2018-12-18T19:22:51.966Z,16.97
2018-12-18T19:25:24.100Z,15.20
2018-12-18T19:27:56.491Z,16.73
2018-12-18T19:30:30.744Z,14.43
2018-12-18T19:33:02.440Z,14.57
2018-12-18T19:35:34.843Z,15.63
2018-12-18T19:38:07.631Z,14.97
2018-12-18T19:40:39.562Z,15.47
2018-12-18T19:43:11.969Z,14.40
2018-12-18T19:45:43.802Z,13.77
2018-12-18T19:48:14.255Z,15.00
2018-12-18T19:50:46.732Z,16.37
2018-12-18T19:53:18.288Z,18.03
2018-12-18T19:55:52.455Z,18.97
2018-12-18T19:58:24.342Z,18.10
2018-12-18T20:00:56.600Z,16.67
2018-12-18T20:03:29.011Z,17.20
2018-12-18T20:06:01.259Z,16.80
2018-12-18T20:08:35.661Z,17.87
2018-12-18T20:11:07.511Z,18.73
2018-12-18T20:13:42.072Z,18.00
2018-12-18T20:16:14.541Z,19.97
2018-12-18T20:18:48.887Z,19.17
2018-12-18T20:21:20.556Z,19.30
2018-12-18T20:23:52.745Z,19.53
2018-12-18T20:26:24.636Z,19.17
2018-12-18T20:28:57.012Z,18.03
2018-12-18T20:31:27.198Z,17.60
2018-12-18T20:33:57.413Z,19.23
2018-12-18T20:36:29.785Z,18.73
2018-12-18T20:39:01.970Z,17.97
2018-12-18T20:41:34.156Z,16.83
2018-12-18T20:44:07.423Z,17.33
2018-12-18T20:46:39.089Z,17.43
2018-12-18T20:49:11.070Z,17.30
2018-12-18T20:51:45.867Z,18.77
2018-12-18T20:54:19.715Z,20.13
2018-12-18T20:56:52.360Z,20.43
2018-12-18T20:59:24.546Z,20.23
2018-12-18T21:01:56.332Z,20.07
2018-12-18T21:04:37.960Z,19.33
2018-12-18T21:07:10.930Z,19.83
2018-12-18T21:09:42.900Z,19.40
2018-12-18T21:12:15.336Z,20.03
2018-12-18T21:14:47.425Z,21.47
2018-12-18T21:17:19.317Z,50.43
2018-12-18T21:19:52.044Z,24.70
2018-12-18T21:22:23.905Z,32.97
2018-12-18T21:24:55.821Z,25.93
2018-12-18T21:27:29.634Z,24.33
2018-12-18T21:29:59.903Z,24.57
2018-12-18T21:32:31.980Z,21.17
2018-12-18T21:35:04.732Z,22.17
2018-12-18T21:37:37.708Z,21.23
2018-12-18T21:40:24.388Z,22.23
2018-12-18T21:42:56.269Z,22.00
2018-12-18T21:45:30.612Z,23.10
2018-12-18T21:48:04.973Z,21.80
2018-12-18T21:50:37.098Z,22.83
2018-12-18T21:53:11.427Z,26.20
2018-12-18T21:55:43.531Z,26.30
2018-12-18T21:58:15.659Z,24.10
2018-12-18T22:00:49.991Z,24.47
2018-12-18T22:03:21.911Z,23.53
2018-12-18T22:05:52.577Z,24.87
2018-12-18T22:08:24.856Z,23.03
2018-12-18T22:10:57.091Z,24.13
2018-12-18T22:13:29.325Z,22.33
2018-12-18T22:16:01.589Z,22.93
2018-12-18T22:18:37.539Z,24.43
2018-12-18T22:21:11.714Z,24.73
2018-12-18T22:23:43.524Z,24.47
2018-12-18T22:26:15.624Z,24.87
2018-12-18T22:28:45.859Z,24.60
2018-12-18T22:31:18.071Z,24.53
2018-12-18T22:33:48.328Z,24.27
2018-12-18T22:36:20.469Z,24.13
2018-12-18T22:38:50.819Z,24.00
2018-12-18T22:41:23.152Z,25.77
2018-12-18T22:43:55.062Z,25.10
2018-12-18T22:46:25.556Z,25.30
2018-12-18T22:48:58.109Z,25.47
2018-12-18T22:51:29.924Z,25.53
2018-12-18T22:54:02.197Z,26.20
2018-12-18T22:59:26.153Z,27.90
2018-12-18T23:01:57.227Z,27.87
2018-12-18T23:04:29.630Z,28.60
2018-12-18T23:07:01.780Z,27.77
2018-12-18T23:09:32.581Z,29.90
2018-12-18T23:12:04.393Z,29.77
2018-12-18T23:14:36.524Z,29.30
2018-12-18T23:22:09.642Z,29.33
2018-12-18T23:24:41.789Z,29.50
2018-12-18T23:27:12.148Z,29.57
2018-12-18T23:29:44.703Z,27.90
2018-12-18T23:32:14.732Z,29.20
2018-12-18T23:34:47.116Z,29.87
2018-12-18T23:37:19.437Z,29.80
2018-12-18T23:39:51.809Z,29.30
2018-12-18T23:42:23.559Z,28.33
2018-12-18T23:44:54.575Z,28.87
2018-12-18T23:47:26.199Z,28.73
2018-12-18T23:49:56.211Z,27.60
2018-12-18T23:52:26.620Z,29.83
2018-12-18T23:54:58.700Z,28.67
2018-12-18T23:57:28.975Z,29.13
